sensor_id;sensor_type;location;lat;lon;timestamp;pressure;altitude;pressure_sealevel;temperature;humidity
34145;BME280;20422;53.014;8.886;2022-10-24T00:00:28;100563.75;;;14.12;100.00
34145;BME280;20422;53.014;8.886;2022-10-24T00:04:18;100562.84;;;14.02;100.00
34145;BME280;20422;53.014;8.886;2022-10-24T00:07:13;100527.88;;;13.79;100.00
34145;BME280;20422;53.014;8.886;2022-10-24T00:10:42;100569.94;;;14.03;100.00
34145;BME280;20422;53.014;8.886;2022-10-24T00:14:14;100576.78;;;13.96;100.00
34145;BME280;20422;53.014;8.886;2022-10-24T00:18:07;100575.06;;;14.06;100.00
34145;BME280;20422;53.014;8.886;2022-10-24T00:21:40;100583.00;;;14.07;100.00
34145;BME280;20422;53.014;8.886;2022-10-24T00:24:47;100583.47;;;14.12;100.00
34145;BME280;20422;53.014;8.886;2022-10-24T00:28:49;100565.13;;;14.06;100.00
34145;BME280;20422;53.014;8.886;2022-10-24T00:32:32;100565.13;;;14.06;100.00
34145;BME280;20422;53.014;8.886;2022-10-24T00:36:16;100565.19;;;14.16;100.00
34145;BME280;20422;53.014;8.886;2022-10-24T00:39:57;100547.56;;;14.12;100.00
34145;BME280;20422;53.014;8.886;2022-10-24T00:43:24;100579.63;;;14.26;100.00
34145;BME280;20422;53.014;8.886;2022-10-24T00:54:04;100563.56;;;14.25;100.00
34145;BME280;20422;53.014;8.886;2022-10-24T00:57:53;100443.78;;;13.55;100.00
34145;BME280;20422;53.014;8.886;2022-10-24T01:05:21;100555.34;;;14.26;100.00
34145;BME280;20422;53.014;8.886;2022-10-24T01:19:05;100541.59;;;14.08;100.00
34145;BME280;20422;53.014;8.886;2022-10-24T01:22:27;100513.84;;;13.97;100.00
34145;BME280;20422;53.014;8.886;2022-10-24T01:36:21;100512.81;;;13.88;100.00
34145;BME280;20422;53.014;8.886;2022-10-24T01:39:46;100513.91;;;13.85;100.00
34145;BME280;20422;53.014;8.886;2022-10-24T01:43:21;100520.66;;;13.80;100.00
34145;BME280;20422;53.014;8.886;2022-10-24T01:57:12;100524.25;;;13.69;100.00
34145;BME280;20422;53.014;8.886;2022-10-24T02:00:14;100461.63;;;13.24;100.00
34145;BME280;20422;53.014;8.886;2022-10-24T02:03:18;100526.50;;;13.53;100.00
34145;BME280;20422;53.014;8.886;2022-10-24T02:06:54;100517.97;;;13.48;100.00
34145;BME280;20422;53.014;8.886;2022-10-24T02:10:33;100527.13;;;13.45;100.00
34145;BME280;20422;53.014;8.886;2022-10-24T02:16:50;100491.81;;;13.27;100.00
34145;BME280;20422;53.014;8.886;2022-10-24T02:19:55;100500.53;;;13.31;100.00
34145;BME280;20422;53.014;8.886;2022-10-24T02:23:10;100489.50;;;13.23;100.00
34145;BME280;20422;53.014;8.886;2022-10-24T02:25:53;100487.06;;;13.20;100.00
34145;BME280;20422;53.014;8.886;2022-10-24T02:28:39;100468.84;;;13.12;100.00
34145;BME280;20422;53.014;8.886;2022-10-24T02:31:37;100475.78;;;13.26;100.00
34145;BME280;20422;53.014;8.886;2022-10-24T02:34:14;100416.44;;;12.84;100.00
34145;BME280;20422;53.014;8.886;2022-10-24T02:36:58;100414.84;;;12.82;100.00
34145;BME280;20422;53.014;8.886;2022-10-24T02:39:29;100420.94;;;12.95;100.00
34145;BME280;20422;53.014;8.886;2022-10-24T02:42:19;100416.31;;;12.86;100.00
34145;BME280;20422;53.014;8.886;2022-10-24T02:45:04;100427.94;;;12.86;100.00
34145;BME280;20422;53.014;8.886;2022-10-24T02:47:45;100419.25;;;12.83;100.00
34145;BME280;20422;53.014;8.886;2022-10-24T02:50:39;100441.22;;;12.99;100.00
34145;BME280;20422;53.014;8.886;2022-10-24T02:53:18;100393.94;;;12.74;100.00
34145;BME280;20422;53.014;8.886;2022-10-24T02:56:11;100395.56;;;12.77;100.00
34145;BME280;20422;53.014;8.886;2022-10-24T02:59:05;100466.03;;;13.25;100.00
34145;BME280;20422;53.014;8.886;2022-10-24T03:01:42;100449.03;;;13.13;100.00
34145;BME280;20422;53.014;8.886;2022-10-24T03:04:16;100434.75;;;13.01;100.00
34145;BME280;20422;53.014;8.886;2022-10-24T03:06:59;100442.81;;;13.13;100.00
34145;BME280;20422;53.014;8.886;2022-10-24T03:09:24;100406.03;;;12.91;100.00
34145;BME280;20422;53.014;8.886;2022-10-24T03:12:00;100447.69;;;13.19;100.00
34145;BME280;20422;53.014;8.886;2022-10-24T03:14:35;100452.59;;;13.14;100.00
34145;BME280;20422;53.014;8.886;2022-10-24T03:17:02;100446.34;;;13.13;100.00
34145;BME280;20422;53.014;8.886;2022-10-24T03:19:35;100365.75;;;12.68;100.00
34145;BME280;20422;53.014;8.886;2022-10-24T03:22:04;100449.75;;;13.15;100.00
34145;BME280;20422;53.014;8.886;2022-10-24T03:24:32;100434.22;;;13.08;100.00
34145;BME280;20422;53.014;8.886;2022-10-24T03:26:59;100449.75;;;13.15;100.00
34145;BME280;20422;53.014;8.886;2022-10-24T03:29:25;100384.28;;;12.83;100.00
34145;BME280;20422;53.014;8.886;2022-10-24T03:31:54;100418.72;;;13.11;100.00
34145;BME280;20422;53.014;8.886;2022-10-24T03:34:21;100382.44;;;12.94;100.00
34145;BME280;20422;53.014;8.886;2022-10-24T03:36:48;100429.69;;;13.30;100.00
34145;BME280;20422;53.014;8.886;2022-10-24T03:39:14;100357.75;;;12.89;100.00
34145;BME280;20422;53.014;8.886;2022-10-24T03:41:43;100386.06;;;13.05;100.00
34145;BME280;20422;53.014;8.886;2022-10-24T03:44:10;100378.66;;;12.97;100.00
34145;BME280;20422;53.014;8.886;2022-10-24T03:46:38;100438.97;;;13.26;100.00
34145;BME280;20422;53.014;8.886;2022-10-24T03:49:04;100372.81;;;12.81;100.00
34145;BME280;20422;53.014;8.886;2022-10-24T03:51:34;100380.63;;;12.84;100.00
34145;BME280;20422;53.014;8.886;2022-10-24T03:54:02;100381.59;;;12.83;100.00
34145;BME280;20422;53.014;8.886;2022-10-24T03:56:29;100383.31;;;12.84;100.00
34145;BME280;20422;53.014;8.886;2022-10-24T03:58:58;100389.41;;;12.86;100.00
34145;BME280;20422;53.014;8.886;2022-10-24T04:01:23;100423.47;;;13.08;100.00
34145;BME280;20422;53.014;8.886;2022-10-24T04:03:48;100386.00;;;12.84;100.00
34145;BME280;20422;53.014;8.886;2022-10-24T04:06:14;100417.22;;;13.07;100.00
34145;BME280;20422;53.014;8.886;2022-10-24T04:08:39;100388.19;;;12.90;100.00
34145;BME280;20422;53.014;8.886;2022-10-24T04:11:05;100424.31;;;13.08;100.00
34145;BME280;20422;53.014;8.886;2022-10-24T04:13:31;100437.78;;;13.19;100.00
34145;BME280;20422;53.014;8.886;2022-10-24T04:15:57;100435.22;;;13.18;100.00
34145;BME280;20422;53.014;8.886;2022-10-24T04:18:23;100447.69;;;13.19;100.00
34145;BME280;20422;53.014;8.886;2022-10-24T04:20:48;100405.31;;;12.89;100.00
34145;BME280;20422;53.014;8.886;2022-10-24T04:23:14;100434.34;;;13.06;100.00
34145;BME280;20422;53.014;8.886;2022-10-24T04:25:39;100430.09;;;13.04;100.00
34145;BME280;20422;53.014;8.886;2022-10-24T04:28:05;100419.84;;;12.97;100.00
34145;BME280;20422;53.014;8.886;2022-10-24T04:30:31;100441.81;;;13.14;100.00
34145;BME280;20422;53.014;8.886;2022-10-24T04:32:57;100375.13;;;12.74;100.00
34145;BME280;20422;53.014;8.886;2022-10-24T04:35:23;100425.44;;;13.06;100.00
34145;BME280;20422;53.014;8.886;2022-10-24T04:37:49;100385.66;;;12.77;100.00
34145;BME280;20422;53.014;8.886;2022-10-24T04:40:15;100383.31;;;12.73;100.00
34145;BME280;20422;53.014;8.886;2022-10-24T04:42:40;100382.34;;;12.74;100.00
34145;BME280;20422;53.014;8.886;2022-10-24T04:45:06;100395.06;;;12.83;100.00
34145;BME280;20422;53.014;8.886;2022-10-24T04:47:31;100401.16;;;12.85;100.00
34145;BME280;20422;53.014;8.886;2022-10-24T04:49:57;100383.09;;;12.76;100.00
34145;BME280;20422;53.014;8.886;2022-10-24T04:52:22;100366.25;;;12.62;100.00
34145;BME280;20422;53.014;8.886;2022-10-24T04:54:48;100385.41;;;12.69;100.00
34145;BME280;20422;53.014;8.886;2022-10-24T04:57:13;100361.34;;;12.56;100.00
34145;BME280;20422;53.014;8.886;2022-10-24T04:59:42;100443.53;;;13.04;100.00
34145;BME280;20422;53.014;8.886;2022-10-24T05:02:07;100432.31;;;12.98;100.00
34145;BME280;20422;53.014;8.886;2022-10-24T05:04:32;100384.56;;;12.68;100.00
34145;BME280;20422;53.014;8.886;2022-10-24T05:06:58;100431.00;;;12.93;100.00
34145;BME280;20422;53.014;8.886;2022-10-24T05:09:23;100385.78;;;12.64;100.00
34145;BME280;20422;53.014;8.886;2022-10-24T05:11:49;100365.28;;;12.52;100.00
34145;BME280;20422;53.014;8.886;2022-10-24T05:14:14;100387.88;;;12.61;100.00
34145;BME280;20422;53.014;8.886;2022-10-24T05:16:39;100395.06;;;12.71;100.00
34145;BME280;20422;53.014;8.886;2022-10-24T05:19:05;100398.97;;;12.67;100.00
34145;BME280;20422;53.014;8.886;2022-10-24T05:21:31;100433.53;;;12.94;100.00
34145;BME280;20422;53.014;8.886;2022-10-24T05:23:57;100381.88;;;12.68;100.00
34145;BME280;20422;53.014;8.886;2022-10-24T05:26:22;100402.25;;;12.82;100.00
34145;BME280;20422;53.014;8.886;2022-10-24T05:28:48;100383.84;;;12.66;100.00
34145;BME280;20422;53.014;8.886;2022-10-24T05:31:13;100391.78;;;12.68;100.00
34145;BME280;20422;53.014;8.886;2022-10-24T05:33:38;100388.34;;;12.66;100.00
34145;BME280;20422;53.014;8.886;2022-10-24T05:36:04;100379.94;;;12.48;100.00
34145;BME280;20422;53.014;8.886;2022-10-24T05:38:29;100382.38;;;12.51;100.00
34145;BME280;20422;53.014;8.886;2022-10-24T05:40:55;100354.69;;;12.28;100.00
34145;BME280;20422;53.014;8.886;2022-10-24T05:43:20;100370.91;;;12.38;100.00
34145;BME280;20422;53.014;8.886;2022-10-24T05:45:47;100393.75;;;12.44;100.00
34145;BME280;20422;53.014;8.886;2022-10-24T05:48:12;100362.72;;;12.17;100.00
34145;BME280;20422;53.014;8.886;2022-10-24T05:50:38;100387.16;;;12.25;100.00
34145;BME280;20422;53.014;8.886;2022-10-24T05:53:03;100380.94;;;12.25;100.00
34145;BME280;20422;53.014;8.886;2022-10-24T05:55:28;100361.38;;;12.00;100.00
34145;BME280;20422;53.014;8.886;2022-10-24T05:57:55;100434.06;;;12.44;100.00
34145;BME280;20422;53.014;8.886;2022-10-24T06:00:21;100354.78;;;11.93;100.00
34145;BME280;20422;53.014;8.886;2022-10-24T06:02:46;100389.84;;;12.14;100.00
34145;BME280;20422;53.014;8.886;2022-10-24T06:05:12;100379.72;;;12.06;100.00
34145;BME280;20422;53.014;8.886;2022-10-24T06:07:38;100380.81;;;12.15;100.00
34145;BME280;20422;53.014;8.886;2022-10-24T06:10:06;100353.19;;;12.02;100.00
34145;BME280;20422;53.014;8.886;2022-10-24T06:12:32;100378.13;;;12.15;100.00
34145;BME280;20422;53.014;8.886;2022-10-24T06:14:58;100439.94;;;12.49;100.00
34145;BME280;20422;53.014;8.886;2022-10-24T06:17:24;100366.03;;;12.09;100.00
34145;BME280;20422;53.014;8.886;2022-10-24T06:19:50;100359.81;;;12.09;100.00
34145;BME280;20422;53.014;8.886;2022-10-24T06:22:16;100360.31;;;12.03;100.00
34145;BME280;20422;53.014;8.886;2022-10-24T06:24:42;100419.41;;;12.36;100.00
34145;BME280;20422;53.014;8.886;2022-10-24T06:27:07;100367.88;;;12.09;100.00
34145;BME280;20422;53.014;8.886;2022-10-24T06:29:33;100370.91;;;12.16;100.00
34145;BME280;20422;53.014;8.886;2022-10-24T06:31:59;100387.88;;;12.16;100.00
34145;BME280;20422;53.014;8.886;2022-10-24T06:34:25;100386.91;;;12.06;100.00
34145;BME280;20422;53.014;8.886;2022-10-24T06:36:50;100385.69;;;12.10;100.00
34145;BME280;20422;53.014;8.886;2022-10-24T06:39:15;100380.31;;;12.10;100.00
34145;BME280;20422;53.014;8.886;2022-10-24T06:41:41;100404.28;;;12.24;100.00
34145;BME280;20422;53.014;8.886;2022-10-24T06:44:06;100384.59;;;12.13;100.00
34145;BME280;20422;53.014;8.886;2022-10-24T06:46:31;100360.66;;;11.98;100.00
34145;BME280;20422;53.014;8.886;2022-10-24T06:48:57;100412.09;;;12.27;100.00
34145;BME280;20422;53.014;8.886;2022-10-24T06:51:23;100435.41;;;12.38;100.00
34145;BME280;20422;53.014;8.886;2022-10-24T06:53:48;100373.25;;;12.09;100.00
34145;BME280;20422;53.014;8.886;2022-10-24T06:56:14;100437.50;;;12.57;100.00
34145;BME280;20422;53.014;8.886;2022-10-24T06:58:42;100409.28;;;12.40;100.00
34145;BME280;20422;53.014;8.886;2022-10-24T07:03:33;100413.41;;;12.55;100.00
34145;BME280;20422;53.014;8.886;2022-10-24T07:06:08;100408.53;;;12.60;100.00
34145;BME280;20422;53.014;8.886;2022-10-24T07:08:34;100455.66;;;12.87;100.00
34145;BME280;20422;53.014;8.886;2022-10-24T07:10:59;100422.94;;;12.82;100.00
34145;BME280;20422;53.014;8.886;2022-10-24T07:13:24;100427.19;;;12.84;100.00
34145;BME280;20422;53.014;8.886;2022-10-24T07:15:50;100401.81;;;12.66;100.00
34145;BME280;20422;53.014;8.886;2022-10-24T07:18:18;100417.81;;;12.79;100.00
34145;BME280;20422;53.014;8.886;2022-10-24T07:20:44;100476.78;;;13.25;100.00
34145;BME280;20422;53.014;8.886;2022-10-24T07:23:09;100425.22;;;12.97;100.00
34145;BME280;20422;53.014;8.886;2022-10-24T07:25:37;100480.31;;;13.37;100.00
34145;BME280;20422;53.014;8.886;2022-10-24T07:28:02;100443.16;;;13.19;100.00
34145;BME280;20422;53.014;8.886;2022-10-24T07:30:27;100420.78;;;13.19;100.00
34145;BME280;20422;53.014;8.886;2022-10-24T07:32:53;100440.75;;;13.48;100.00
34145;BME280;20422;53.014;8.886;2022-10-24T07:35:20;100455.88;;;13.60;100.00
34145;BME280;20422;53.014;8.886;2022-10-24T07:37:45;100477.56;;;13.80;100.00
34145;BME280;20422;53.014;8.886;2022-10-24T07:40:11;100435.25;;;13.71;100.00
34145;BME280;20422;53.014;8.886;2022-10-24T07:42:37;100453.84;;;13.95;100.00
34145;BME280;20422;53.014;8.886;2022-10-24T07:45:02;100482.78;;;14.13;100.00
34145;BME280;20422;53.014;8.886;2022-10-24T07:47:29;100471.00;;;14.14;100.00
34145;BME280;20422;53.014;8.886;2022-10-24T07:49:55;100473.53;;;14.06;100.00
34145;BME280;20422;53.014;8.886;2022-10-24T07:52:21;100469.03;;;14.16;100.00
34145;BME280;20422;53.014;8.886;2022-10-24T07:54:46;100451.47;;;14.43;100.00
34145;BME280;20422;53.014;8.886;2022-10-24T07:57:17;100464.69;;;15.17;100.00
34145;BME280;20422;53.014;8.886;2022-10-24T07:59:43;100475.28;;;15.68;100.00
34145;BME280;20422;53.014;8.886;2022-10-24T08:02:10;100455.66;;;15.85;100.00
34145;BME280;20422;53.014;8.886;2022-10-24T08:04:36;100478.97;;;15.96;100.00
34145;BME280;20422;53.014;8.886;2022-10-24T08:07:01;100453.78;;;15.57;100.00
34145;BME280;20422;53.014;8.886;2022-10-24T08:09:26;100464.88;;;15.44;100.00
34145;BME280;20422;53.014;8.886;2022-10-24T08:11:52;100477.50;;;15.34;100.00
34145;BME280;20422;53.014;8.886;2022-10-24T08:14:17;100464.53;;;15.18;100.00
34145;BME280;20422;53.014;8.886;2022-10-24T08:16:48;100468.94;;;15.19;100.00
34145;BME280;20422;53.014;8.886;2022-10-24T08:19:14;100466.94;;;15.11;100.00
34145;BME280;20422;53.014;8.886;2022-10-24T08:21:39;100452.84;;;14.98;100.00
34145;BME280;20422;53.014;8.886;2022-10-24T08:24:05;100473.75;;;15.16;100.00
34145;BME280;20422;53.014;8.886;2022-10-24T08:26:30;100465.81;;;15.14;100.00
34145;BME280;20422;53.014;8.886;2022-10-24T08:28:55;100469.81;;;15.29;100.00
34145;BME280;20422;53.014;8.886;2022-10-24T08:31:23;100462.00;;;15.36;100.00
34145;BME280;20422;53.014;8.886;2022-10-24T08:33:53;100482.78;;;15.45;100.00
34145;BME280;20422;53.014;8.886;2022-10-24T08:36:22;100466.16;;;15.59;100.00
34145;BME280;20422;53.014;8.886;2022-10-24T08:38:48;100448.34;;;16.15;100.00
34145;BME280;20422;53.014;8.886;2022-10-24T08:41:37;100471.00;;;16.60;100.00
34145;BME280;20422;53.014;8.886;2022-10-24T08:46:55;100440.41;;;16.70;99.52
34145;BME280;20422;53.014;8.886;2022-10-24T08:49:28;100455.09;;;16.95;99.45
34145;BME280;20422;53.014;8.886;2022-10-24T08:54:43;100460.88;;;17.27;98.07
34145;BME280;20422;53.014;8.886;2022-10-24T08:57:18;100454.53;;;17.54;96.01
34145;BME280;20422;53.014;8.886;2022-10-24T08:59:44;100445.84;;;17.78;95.51
34145;BME280;20422;53.014;8.886;2022-10-24T09:04:39;100425.53;;;17.64;94.49
34145;BME280;20422;53.014;8.886;2022-10-24T09:07:15;100427.22;;;17.83;94.09
34145;BME280;20422;53.014;8.886;2022-10-24T09:09:45;100445.69;;;17.79;93.89
34145;BME280;20422;53.014;8.886;2022-10-24T09:12:13;100456.09;;;17.92;93.42
34145;BME280;20422;53.014;8.886;2022-10-24T09:14:41;100453.00;;;18.05;92.24
34145;BME280;20422;53.014;8.886;2022-10-24T09:17:17;100469.13;;;18.32;93.73
34145;BME280;20422;53.014;8.886;2022-10-24T09:22:14;100444.84;;;18.31;90.09
34145;BME280;20422;53.014;8.886;2022-10-24T09:24:42;100454.03;;;18.12;91.35
34145;BME280;20422;53.014;8.886;2022-10-24T09:27:18;100455.84;;;17.77;92.58
34145;BME280;20422;53.014;8.886;2022-10-24T09:29:44;100438.00;;;17.75;92.65
34145;BME280;20422;53.014;8.886;2022-10-24T09:32:22;100439.00;;;17.74;92.13
34145;BME280;20422;53.014;8.886;2022-10-24T09:34:48;100457.06;;;18.09;91.40
34145;BME280;20422;53.014;8.886;2022-10-24T09:37:40;100456.56;;;18.05;91.42
34145;BME280;20422;53.014;8.886;2022-10-24T09:43:20;100460.28;;;18.04;90.78
34145;BME280;20422;53.014;8.886;2022-10-24T09:46:00;100447.16;;;18.18;87.95
34145;BME280;20422;53.014;8.886;2022-10-24T09:48:37;100437.03;;;18.54;88.61
34145;BME280;20422;53.014;8.886;2022-10-24T09:51:04;100456.81;;;18.46;86.73
34145;BME280;20422;53.014;8.886;2022-10-24T09:53:36;100458.22;;;18.50;86.98
34145;BME280;20422;53.014;8.886;2022-10-24T09:56:09;100454.41;;;18.35;86.11
34145;BME280;20422;53.014;8.886;2022-10-24T09:58:34;100445.63;;;18.15;85.73
34145;BME280;20422;53.014;8.886;2022-10-24T10:01:06;100447.34;;;17.98;86.50
34145;BME280;20422;53.014;8.886;2022-10-24T10:03:42;100455.78;;;17.95;87.08
34145;BME280;20422;53.014;8.886;2022-10-24T10:06:17;100465.84;;;18.03;87.29
34145;BME280;20422;53.014;8.886;2022-10-24T10:08:53;100444.06;;;18.12;88.25
34145;BME280;20422;53.014;8.886;2022-10-24T10:11:27;100473.38;;;18.35;86.46
34145;BME280;20422;53.014;8.886;2022-10-24T10:13:55;100480.88;;;18.15;87.23
34145;BME280;20422;53.014;8.886;2022-10-24T10:16:28;100472.34;;;18.10;87.43
34145;BME280;20422;53.014;8.886;2022-10-24T10:19:01;100467.94;;;18.09;87.59
34145;BME280;20422;53.014;8.886;2022-10-24T10:27:35;100481.59;;;17.99;88.18
34145;BME280;20422;53.014;8.886;2022-10-24T10:35:51;100489.44;;;17.85;88.29
34145;BME280;20422;53.014;8.886;2022-10-24T10:38:42;100476.03;;;17.83;88.77
34145;BME280;20422;53.014;8.886;2022-10-24T10:41:38;100499.63;;;17.73;88.53
34145;BME280;20422;53.014;8.886;2022-10-24T10:44:19;100476.69;;;17.49;89.36
34145;BME280;20422;53.014;8.886;2022-10-24T10:49:53;100469.03;;;17.45;89.13
34145;BME280;20422;53.014;8.886;2022-10-24T10:52:31;100468.03;;;17.99;88.58
34145;BME280;20422;53.014;8.886;2022-10-24T10:55:10;100483.00;;;18.29;86.37
34145;BME280;20422;53.014;8.886;2022-10-24T11:00:35;100486.72;;;18.28;85.82
34145;BME280;20422;53.014;8.886;2022-10-24T11:11:30;100478.16;;;17.62;88.21
34145;BME280;20422;53.014;8.886;2022-10-24T11:16:40;100483.25;;;17.47;89.30
34145;BME280;20422;53.014;8.886;2022-10-24T11:19:27;100474.41;;;17.27;89.60
34145;BME280;20422;53.014;8.886;2022-10-24T11:22:00;100483.97;;;17.21;90.98
34145;BME280;20422;53.014;8.886;2022-10-24T11:24:31;100469.44;;;17.22;91.49
34145;BME280;20422;53.014;8.886;2022-10-24T11:27:18;100494.84;;;17.39;91.47
34145;BME280;20422;53.014;8.886;2022-10-24T11:29:56;100475.88;;;17.39;90.11
34145;BME280;20422;53.014;8.886;2022-10-24T11:32:35;100492.63;;;17.52;90.02
34145;BME280;20422;53.014;8.886;2022-10-24T11:37:45;100475.06;;;17.57;90.03
34145;BME280;20422;53.014;8.886;2022-10-24T11:40:18;100449.81;;;17.56;88.60
34145;BME280;20422;53.014;8.886;2022-10-24T11:42:54;100457.53;;;17.78;88.21
34145;BME280;20422;53.014;8.886;2022-10-24T11:50:55;100449.13;;;17.54;87.14
34145;BME280;20422;53.014;8.886;2022-10-24T11:56:44;100496.28;;;17.61;87.37
34145;BME280;20422;53.014;8.886;2022-10-24T12:12:30;100507.97;;;17.44;88.19
34145;BME280;20422;53.014;8.886;2022-10-24T12:15:09;100495.84;;;17.38;88.75
34145;BME280;20422;53.014;8.886;2022-10-24T12:17:58;100454.63;;;16.99;88.43
34145;BME280;20422;53.014;8.886;2022-10-24T12:20:38;100502.25;;;17.19;88.59
34145;BME280;20422;53.014;8.886;2022-10-24T12:23:15;100491.47;;;17.10;88.93
34145;BME280;20422;53.014;8.886;2022-10-24T12:25:47;100452.88;;;16.80;89.30
34145;BME280;20422;53.014;8.886;2022-10-24T12:28:34;100508.72;;;17.09;88.93
34145;BME280;20422;53.014;8.886;2022-10-24T12:33:37;100438.88;;;16.85;88.00
34145;BME280;20422;53.014;8.886;2022-10-24T12:36:05;100482.38;;;17.01;88.53
34145;BME280;20422;53.014;8.886;2022-10-24T12:41:04;100503.47;;;17.07;89.04
34145;BME280;20422;53.014;8.886;2022-10-24T12:43:34;100524.91;;;17.18;88.98
34145;BME280;20422;53.014;8.886;2022-10-24T12:51:34;100533.34;;;17.15;90.50
34145;BME280;20422;53.014;8.886;2022-10-24T12:59:23;100467.09;;;16.82;89.71
34145;BME280;20422;53.014;8.886;2022-10-24T13:13:56;100498.25;;;16.86;89.27
34145;BME280;20422;53.014;8.886;2022-10-24T13:19:18;100523.00;;;17.01;90.00
34145;BME280;20422;53.014;8.886;2022-10-24T13:21:56;100536.44;;;17.20;88.69
34145;BME280;20422;53.014;8.886;2022-10-24T13:24:26;100534.16;;;17.26;88.52
34145;BME280;20422;53.014;8.886;2022-10-24T13:31:54;100510.03;;;17.32;89.59
34145;BME280;20422;53.014;8.886;2022-10-24T13:42:33;100529.69;;;17.34;89.61
34145;BME280;20422;53.014;8.886;2022-10-24T13:45:29;100511.53;;;17.17;89.18
34145;BME280;20422;53.014;8.886;2022-10-24T13:48:22;100545.38;;;17.31;89.92
34145;BME280;20422;53.014;8.886;2022-10-24T13:51:11;100534.59;;;17.21;90.23
34145;BME280;20422;53.014;8.886;2022-10-24T13:53:52;100529.69;;;17.07;90.82
34145;BME280;20422;53.014;8.886;2022-10-24T13:56:38;100519.97;;;17.04;91.13
34145;BME280;20422;53.014;8.886;2022-10-24T13:59:36;100531.53;;;17.06;91.89
34145;BME280;20422;53.014;8.886;2022-10-24T14:02:37;100551.25;;;17.26;91.31
34145;BME280;20422;53.014;8.886;2022-10-24T14:05:56;100536.75;;;17.17;91.54
34145;BME280;20422;53.014;8.886;2022-10-24T14:08:23;100505.28;;;16.79;91.87
34145;BME280;20422;53.014;8.886;2022-10-24T14:10:56;100504.59;;;16.77;92.62
34145;BME280;20422;53.014;8.886;2022-10-24T14:13:37;100575.13;;;17.13;93.50
34145;BME280;20422;53.014;8.886;2022-10-24T14:16:09;100547.59;;;16.80;94.94
34145;BME280;20422;53.014;8.886;2022-10-24T14:18:35;100577.19;;;16.82;95.41
34145;BME280;20422;53.014;8.886;2022-10-24T14:21:04;100579.94;;;16.72;97.28
34145;BME280;20422;53.014;8.886;2022-10-24T14:23:37;100532.56;;;16.29;98.21
34145;BME280;20422;53.014;8.886;2022-10-24T14:26:17;100554.50;;;16.26;99.49
34145;BME280;20422;53.014;8.886;2022-10-24T14:28:50;100589.94;;;16.43;99.82
34145;BME280;20422;53.014;8.886;2022-10-24T14:31:37;100587.22;;;16.43;100.00
34145;BME280;20422;53.014;8.886;2022-10-24T14:34:05;100586.94;;;16.46;100.00
34145;BME280;20422;53.014;8.886;2022-10-24T14:36:37;100588.81;;;16.36;100.00
34145;BME280;20422;53.014;8.886;2022-10-24T14:39:06;100576.16;;;16.17;99.60
34145;BME280;20422;53.014;8.886;2022-10-24T14:41:41;100513.81;;;15.89;99.50
34145;BME280;20422;53.014;8.886;2022-10-24T14:44:10;100595.19;;;16.25;100.00
34145;BME280;20422;53.014;8.886;2022-10-24T14:46:41;100586.09;;;16.26;99.85
34145;BME280;20422;53.014;8.886;2022-10-24T14:51:55;100539.97;;;15.79;100.00
34145;BME280;20422;53.014;8.886;2022-10-24T14:54:31;100603.88;;;16.09;100.00
34145;BME280;20422;53.014;8.886;2022-10-24T14:57:02;100518.31;;;15.50;100.00
34145;BME280;20422;53.014;8.886;2022-10-24T14:59:36;100623.47;;;15.92;100.00
34145;BME280;20422;53.014;8.886;2022-10-24T15:02:34;100613.06;;;15.78;100.00
34145;BME280;20422;53.014;8.886;2022-10-24T15:10:37;100601.22;;;15.59;100.00
34145;BME280;20422;53.014;8.886;2022-10-24T15:13:20;100604.88;;;15.58;100.00
34145;BME280;20422;53.014;8.886;2022-10-24T15:18:33;100591.75;;;15.34;100.00
34145;BME280;20422;53.014;8.886;2022-10-24T15:21:11;100627.19;;;15.51;100.00
34145;BME280;20422;53.014;8.886;2022-10-24T15:23:58;100629.47;;;15.46;100.00
34145;BME280;20422;53.014;8.886;2022-10-24T15:26:37;100613.97;;;15.48;100.00
34145;BME280;20422;53.014;8.886;2022-10-24T15:31:38;100592.69;;;15.24;100.00
34145;BME280;20422;53.014;8.886;2022-10-24T15:34:04;100618.53;;;15.47;100.00
34145;BME280;20422;53.014;8.886;2022-10-24T15:36:39;100529.81;;;14.93;100.00
34145;BME280;20422;53.014;8.886;2022-10-24T15:41:35;100573.94;;;15.22;100.00
34145;BME280;20422;53.014;8.886;2022-10-24T15:44:01;100601.25;;;15.29;100.00
34145;BME280;20422;53.014;8.886;2022-10-24T15:46:26;100574.50;;;15.16;100.00
34145;BME280;20422;53.014;8.886;2022-10-24T15:48:52;100567.47;;;15.04;100.00
34145;BME280;20422;53.014;8.886;2022-10-24T15:51:20;100611.59;;;15.24;100.00
34145;BME280;20422;53.014;8.886;2022-10-24T15:53:46;100574.41;;;14.97;100.00
34145;BME280;20422;53.014;8.886;2022-10-24T15:56:13;100578.94;;;14.96;100.00
34145;BME280;20422;53.014;8.886;2022-10-24T15:58:39;100649.16;;;15.36;100.00
34145;BME280;20422;53.014;8.886;2022-10-24T16:01:19;100653.84;;;15.34;100.00
34145;BME280;20422;53.014;8.886;2022-10-24T16:03:45;100553.78;;;14.65;100.00
34145;BME280;20422;53.014;8.886;2022-10-24T16:06:10;100588.56;;;14.89;100.00
34145;BME280;20422;53.014;8.886;2022-10-24T16:08:36;100583.72;;;14.83;100.00
34145;BME280;20422;53.014;8.886;2022-10-24T16:11:01;100645.09;;;15.11;100.00
34145;BME280;20422;53.014;8.886;2022-10-24T16:13:26;100586.53;;;14.81;100.00
34145;BME280;20422;53.014;8.886;2022-10-24T16:15:52;100607.72;;;14.86;100.00
34145;BME280;20422;53.014;8.886;2022-10-24T16:18:17;100611.41;;;14.85;100.00
34145;BME280;20422;53.014;8.886;2022-10-24T16:20:43;100632.06;;;14.96;100.00
34145;BME280;20422;53.014;8.886;2022-10-24T16:23:10;100622.19;;;14.85;100.00